sensor_id;sensor_type;location;lat;lon;timestamp;pressure;altitude;pressure_sealevel;temperature;humidity
65394;BME280;52002;49.760;6.512;2023-08-24T00:01:30;100187.08;;;19.73;76.01
65394;BME280;52002;49.760;6.512;2023-08-24T00:03:56;100182.02;;;19.75;75.82
65394;BME280;52002;49.760;6.512;2023-08-24T00:06:21;100179.70;;;19.77;75.78
65394;BME280;52002;49.760;6.512;2023-08-24T00:08:46;100179.86;;;19.77;75.65
65394;BME280;52002;49.760;6.512;2023-08-24T00:11:12;100183.61;;;19.77;75.67
65394;BME280;52002;49.760;6.512;2023-08-24T00:13:43;100183.84;;;19.74;75.43
65394;BME280;52002;49.760;6.512;2023-08-24T00:16:17;100179.41;;;19.69;75.64
65394;BME280;52002;49.760;6.512;2023-08-24T00:18:43;100180.39;;;19.68;75.66
65394;BME280;52002;49.760;6.512;2023-08-24T00:21:08;100188.09;;;19.67;75.63
65394;BME280;52002;49.760;6.512;2023-08-24T00:23:33;100189.45;;;19.64;75.57
65394;BME280;52002;49.760;6.512;2023-08-24T00:25:59;100185.06;;;19.64;75.70
65394;BME280;52002;49.760;6.512;2023-08-24T00:28:25;100181.46;;;19.61;75.78
65394;BME280;52002;49.760;6.512;2023-08-24T00:30:51;100180.02;;;19.60;75.98
65394;BME280;52002;49.760;6.512;2023-08-24T00:33:16;100182.22;;;19.59;76.11
65394;BME280;52002;49.760;6.512;2023-08-24T00:35:41;100180.48;;;19.59;75.98
65394;BME280;52002;49.760;6.512;2023-08-24T00:38:06;100175.19;;;19.59;76.10
65394;BME280;52002;49.760;6.512;2023-08-24T00:40:32;100173.23;;;19.61;76.08
65394;BME280;52002;49.760;6.512;2023-08-24T00:42:57;100171.16;;;19.61;76.05
65394;BME280;52002;49.760;6.512;2023-08-24T00:45:23;100165.96;;;19.62;76.02
65394;BME280;52002;49.760;6.512;2023-08-24T00:47:48;100169.98;;;19.62;76.04
65394;BME280;52002;49.760;6.512;2023-08-24T00:50:16;100174.27;;;19.59;76.03
65394;BME280;52002;49.760;6.512;2023-08-24T00:52:42;100167.57;;;19.61;76.25
65394;BME280;52002;49.760;6.512;2023-08-24T00:55:09;100148.36;;;19.63;76.33
65394;BME280;52002;49.760;6.512;2023-08-24T00:57:38;100139.03;;;19.65;76.22
65394;BME280;52002;49.760;6.512;2023-08-24T01:00:05;100133.21;;;19.67;76.18
65394;BME280;52002;49.760;6.512;2023-08-24T01:02:33;100130.59;;;19.68;76.07
65394;BME280;52002;49.760;6.512;2023-08-24T01:04:58;100135.23;;;19.68;76.20
65394;BME280;52002;49.760;6.512;2023-08-24T01:07:24;100141.50;;;19.67;75.82
65394;BME280;52002;49.760;6.512;2023-08-24T01:09:50;100129.93;;;19.62;75.85
65394;BME280;52002;49.760;6.512;2023-08-24T01:18:01;100102.70;;;19.51;76.43
65394;BME280;52002;49.760;6.512;2023-08-24T01:20:29;100098.39;;;19.51;76.45
65394;BME280;52002;49.760;6.512;2023-08-24T01:23:06;100092.30;;;19.50;76.48
65394;BME280;52002;49.760;6.512;2023-08-24T01:25:48;100093.59;;;19.49;76.49
65394;BME280;52002;49.760;6.512;2023-08-24T01:28:17;100090.84;;;19.49;76.61
65394;BME280;52002;49.760;6.512;2023-08-24T01:30:44;100093.88;;;19.49;76.46
65394;BME280;52002;49.760;6.512;2023-08-24T01:33:10;100093.66;;;19.48;76.37
65394;BME280;52002;49.760;6.512;2023-08-24T01:35:37;100094.50;;;19.47;76.43
65394;BME280;52002;49.760;6.512;2023-08-24T01:38:03;100093.40;;;19.46;76.41
65394;BME280;52002;49.760;6.512;2023-08-24T01:40:45;100087.17;;;19.44;76.39
65394;BME280;52002;49.760;6.512;2023-08-24T01:43:14;100085.27;;;19.40;76.39
65394;BME280;52002;49.760;6.512;2023-08-24T01:45:41;100081.22;;;19.35;76.55
65394;BME280;52002;49.760;6.512;2023-08-24T01:48:09;100074.92;;;19.31;76.69
65394;BME280;52002;49.760;6.512;2023-08-24T01:50:35;100074.25;;;19.30;76.94
65394;BME280;52002;49.760;6.512;2023-08-24T01:53:02;100063.00;;;19.30;76.89
65394;BME280;52002;49.760;6.512;2023-08-24T01:55:27;100054.75;;;19.28;76.84
65394;BME280;52002;49.760;6.512;2023-08-24T01:57:55;100048.52;;;19.25;77.07
65394;BME280;52002;49.760;6.512;2023-08-24T02:00:20;100036.05;;;19.27;77.03
65394;BME280;52002;49.760;6.512;2023-08-24T02:02:46;100028.41;;;19.26;76.91
65394;BME280;52002;49.760;6.512;2023-08-24T02:05:12;100028.92;;;19.20;76.96
65394;BME280;52002;49.760;6.512;2023-08-24T02:07:38;100026.79;;;19.14;77.12
65394;BME280;52002;49.760;6.512;2023-08-24T02:10:05;100027.45;;;19.09;77.33
65394;BME280;52002;49.760;6.512;2023-08-24T02:12:30;100031.50;;;19.06;77.53
65394;BME280;52002;49.760;6.512;2023-08-24T02:14:55;100037.08;;;19.06;77.70
65394;BME280;52002;49.760;6.512;2023-08-24T02:17:21;100033.48;;;19.04;77.70
65394;BME280;52002;49.760;6.512;2023-08-24T02:19:46;100028.41;;;19.03;77.90
65394;BME280;52002;49.760;6.512;2023-08-24T02:22:11;100024.73;;;19.05;78.05
65394;BME280;52002;49.760;6.512;2023-08-24T02:24:36;100022.17;;;19.06;77.98
65394;BME280;52002;49.760;6.512;2023-08-24T02:27:02;100020.58;;;19.08;77.96
65394;BME280;52002;49.760;6.512;2023-08-24T02:29:27;100018.63;;;19.09;77.96
65394;BME280;52002;49.760;6.512;2023-08-24T02:31:55;100013.98;;;19.10;77.95
65394;BME280;52002;49.760;6.512;2023-08-24T02:34:20;100009.92;;;19.14;77.99
65394;BME280;52002;49.760;6.512;2023-08-24T02:36:46;100008.64;;;19.15;77.83
65394;BME280;52002;49.760;6.512;2023-08-24T02:39:11;100001.20;;;19.19;77.95
65394;BME280;52002;49.760;6.512;2023-08-24T02:41:36;99997.82;;;19.22;77.87
65394;BME280;52002;49.760;6.512;2023-08-24T02:44:02;99994.16;;;19.23;77.73
65394;BME280;52002;49.760;6.512;2023-08-24T02:46:28;99991.39;;;19.21;77.75
65394;BME280;52002;49.760;6.512;2023-08-24T02:48:53;99994.14;;;19.22;77.78
65394;BME280;52002;49.760;6.512;2023-08-24T02:51:21;99992.05;;;19.20;77.71
65394;BME280;52002;49.760;6.512;2023-08-24T02:53:47;99986.66;;;19.15;77.73
65394;BME280;52002;49.760;6.512;2023-08-24T02:56:12;99985.83;;;19.15;78.09
65394;BME280;52002;49.760;6.512;2023-08-24T02:58:37;99977.27;;;19.19;78.17
65394;BME280;52002;49.760;6.512;2023-08-24T03:01:06;99978.75;;;19.23;77.98
65394;BME280;52002;49.760;6.512;2023-08-24T03:03:35;99981.32;;;19.26;77.80
65394;BME280;52002;49.760;6.512;2023-08-24T03:06:03;99993.88;;;19.28;77.69
65394;BME280;52002;49.760;6.512;2023-08-24T03:08:30;99991.67;;;19.30;77.61
65394;BME280;52002;49.760;6.512;2023-08-24T03:10:55;99992.75;;;19.30;77.44
65394;BME280;52002;49.760;6.512;2023-08-24T03:13:21;99989.41;;;19.28;77.53
65394;BME280;52002;49.760;6.512;2023-08-24T03:15:47;99991.79;;;19.28;77.60
65394;BME280;52002;49.760;6.512;2023-08-24T03:18:14;99996.42;;;19.25;77.36
65394;BME280;52002;49.760;6.512;2023-08-24T03:20:40;100004.42;;;19.21;77.36
65394;BME280;52002;49.760;6.512;2023-08-24T03:23:06;100017.08;;;19.21;77.49
65394;BME280;52002;49.760;6.512;2023-08-24T03:25:35;100037.80;;;19.23;77.62
65394;BME280;52002;49.760;6.512;2023-08-24T03:28:02;100051.40;;;19.27;77.64
65394;BME280;52002;49.760;6.512;2023-08-24T03:30:28;100071.80;;;19.30;77.50
65394;BME280;52002;49.760;6.512;2023-08-24T03:32:53;100092.46;;;19.28;77.41
65394;BME280;52002;49.760;6.512;2023-08-24T03:35:18;100114.55;;;19.25;77.50
65394;BME280;52002;49.760;6.512;2023-08-24T03:37:44;100129.67;;;19.23;77.54
65394;BME280;52002;49.760;6.512;2023-08-24T03:40:09;100142.19;;;19.15;77.48
65394;BME280;52002;49.760;6.512;2023-08-24T03:42:35;100155.33;;;19.06;77.73
65394;BME280;52002;49.760;6.512;2023-08-24T03:45:00;100165.55;;;19.00;77.75
65394;BME280;52002;49.760;6.512;2023-08-24T03:47:26;100175.33;;;18.94;78.00
65394;BME280;52002;49.760;6.512;2023-08-24T03:49:51;100177.24;;;18.93;78.26
65394;BME280;52002;49.760;6.512;2023-08-24T03:52:16;100184.11;;;18.95;78.30
65394;BME280;52002;49.760;6.512;2023-08-24T03:54:42;100196.64;;;18.99;78.31
65394;BME280;52002;49.760;6.512;2023-08-24T03:57:07;100200.17;;;19.01;78.15
65394;BME280;52002;49.760;6.512;2023-08-24T03:59:33;100196.64;;;19.02;78.06
65394;BME280;52002;49.760;6.512;2023-08-24T04:01:58;100192.60;;;19.01;78.15
65394;BME280;52002;49.760;6.512;2023-08-24T04:04:27;100186.73;;;19.05;78.22
65394;BME280;52002;49.760;6.512;2023-08-24T04:06:53;100179.35;;;19.06;77.94
65394;BME280;52002;49.760;6.512;2023-08-24T04:09:18;100164.36;;;19.09;78.10
65394;BME280;52002;49.760;6.512;2023-08-24T04:11:43;100160.45;;;19.13;78.25
65394;BME280;52002;49.760;6.512;2023-08-24T04:14:09;100157.14;;;19.18;78.24
65394;BME280;52002;49.760;6.512;2023-08-24T04:16:34;100158.77;;;19.24;78.42
65394;BME280;52002;49.760;6.512;2023-08-24T04:18:59;100162.17;;;19.27;78.06
65394;BME280;52002;49.760;6.512;2023-08-24T04:21:25;100163.15;;;19.30;77.99
65394;BME280;52002;49.760;6.512;2023-08-24T04:23:50;100159.53;;;19.30;77.90
65394;BME280;52002;49.760;6.512;2023-08-24T04:26:15;100154.02;;;19.29;78.02
65394;BME280;52002;49.760;6.512;2023-08-24T04:28:41;100161.17;;;19.32;78.17
65394;BME280;52002;49.760;6.512;2023-08-24T04:31:06;100172.61;;;19.35;78.19
65394;BME280;52002;49.760;6.512;2023-08-24T04:33:32;100192.15;;;19.36;78.29
65394;BME280;52002;49.760;6.512;2023-08-24T04:35:58;100197.05;;;19.37;78.26
65394;BME280;52002;49.760;6.512;2023-08-24T04:38:24;100197.45;;;19.35;77.93
65394;BME280;52002;49.760;6.512;2023-08-24T04:40:50;100182.15;;;19.32;78.11
65394;BME280;52002;49.760;6.512;2023-08-24T04:43:20;100142.24;;;19.34;78.32
65394;BME280;52002;49.760;6.512;2023-08-24T04:45:50;100086.97;;;19.36;78.39
65394;BME280;52002;49.760;6.512;2023-08-24T04:48:18;100056.98;;;19.36;78.36
65394;BME280;52002;49.760;6.512;2023-08-24T04:50:44;100051.36;;;19.32;78.35
65394;BME280;52002;49.760;6.512;2023-08-24T04:53:16;100052.21;;;19.29;78.18
65394;BME280;52002;49.760;6.512;2023-08-24T04:55:42;100043.27;;;19.29;77.99
65394;BME280;52002;49.760;6.512;2023-08-24T04:58:08;100040.79;;;19.31;77.96
65394;BME280;52002;49.760;6.512;2023-08-24T05:00:34;100051.95;;;19.33;77.99
65394;BME280;52002;49.760;6.512;2023-08-24T05:03:01;100077.44;;;19.35;78.03
65394;BME280;52002;49.760;6.512;2023-08-24T05:05:28;100108.23;;;19.38;78.18
65394;BME280;52002;49.760;6.512;2023-08-24T05:07:55;100117.08;;;19.43;77.93
65394;BME280;52002;49.760;6.512;2023-08-24T05:10:20;100121.23;;;19.46;77.75
65394;BME280;52002;49.760;6.512;2023-08-24T05:12:45;100111.46;;;19.49;77.60
65394;BME280;52002;49.760;6.512;2023-08-24T05:15:10;100128.78;;;19.52;77.69
65394;BME280;52002;49.760;6.512;2023-08-24T05:17:36;100151.45;;;19.57;77.72
65394;BME280;52002;49.760;6.512;2023-08-24T05:20:01;100165.64;;;19.62;77.83
65394;BME280;52002;49.760;6.512;2023-08-24T05:22:27;100146.48;;;19.64;77.60
65394;BME280;52002;49.760;6.512;2023-08-24T05:24:52;100126.53;;;19.60;77.43
65394;BME280;52002;49.760;6.512;2023-08-24T05:27:17;100121.43;;;19.62;77.76
65394;BME280;52002;49.760;6.512;2023-08-24T05:29:43;100110.52;;;19.67;77.67
65394;BME280;52002;49.760;6.512;2023-08-24T05:32:08;100106.73;;;19.72;77.47
65394;BME280;52002;49.760;6.512;2023-08-24T05:34:33;100111.37;;;19.77;77.25
65394;BME280;52002;49.760;6.512;2023-08-24T05:36:59;100114.41;;;19.86;76.99
65394;BME280;52002;49.760;6.512;2023-08-24T05:39:24;100106.59;;;19.92;76.94
65394;BME280;52002;49.760;6.512;2023-08-24T05:41:53;100093.84;;;19.92;76.88
65394;BME280;52002;49.760;6.512;2023-08-24T05:44:19;100098.91;;;19.90;76.82
65394;BME280;52002;49.760;6.512;2023-08-24T05:46:45;100116.69;;;19.89;76.82
65394;BME280;52002;49.760;6.512;2023-08-24T05:49:11;100128.57;;;19.85;76.86
65394;BME280;52002;49.760;6.512;2023-08-24T05:51:37;100132.16;;;19.84;77.14
65394;BME280;52002;49.760;6.512;2023-08-24T05:54:02;100151.64;;;19.84;77.36
65394;BME280;52002;49.760;6.512;2023-08-24T05:56:27;100197.34;;;19.84;77.46
65394;BME280;52002;49.760;6.512;2023-08-24T05:58:54;100247.58;;;19.81;77.47
65394;BME280;52002;49.760;6.512;2023-08-24T06:01:19;100255.38;;;19.81;77.70
65394;BME280;52002;49.760;6.512;2023-08-24T06:03:45;100231.54;;;19.81;77.63
65394;BME280;52002;49.760;6.512;2023-08-24T06:06:10;100185.31;;;19.79;77.76
65394;BME280;52002;49.760;6.512;2023-08-24T06:08:35;100138.60;;;19.76;78.28
65394;BME280;52002;49.760;6.512;2023-08-24T06:11:01;100088.66;;;19.70;78.47
65394;BME280;52002;49.760;6.512;2023-08-24T06:13:27;100086.42;;;19.65;79.49
65394;BME280;52002;49.760;6.512;2023-08-24T06:15:53;100053.89;;;19.52;79.10
65394;BME280;52002;49.760;6.512;2023-08-24T06:18:19;100014.38;;;19.40;79.39
65394;BME280;52002;49.760;6.512;2023-08-24T06:20:45;100027.43;;;19.37;79.63
65394;BME280;52002;49.760;6.512;2023-08-24T06:23:11;100023.67;;;19.32;79.57
65394;BME280;52002;49.760;6.512;2023-08-24T06:25:38;99988.65;;;19.31;79.52
65394;BME280;52002;49.760;6.512;2023-08-24T06:28:04;99971.27;;;19.27;79.75
65394;BME280;52002;49.760;6.512;2023-08-24T06:30:30;99971.23;;;19.29;80.04
65394;BME280;52002;49.760;6.512;2023-08-24T06:33:03;99962.05;;;19.27;79.89
65394;BME280;52002;49.760;6.512;2023-08-24T06:35:28;99951.68;;;19.26;79.67
65394;BME280;52002;49.760;6.512;2023-08-24T06:37:54;99935.42;;;19.30;79.41
65394;BME280;52002;49.760;6.512;2023-08-24T06:40:19;99934.85;;;19.33;78.81
65394;BME280;52002;49.760;6.512;2023-08-24T06:42:45;99942.52;;;19.36;78.71
65394;BME280;52002;49.760;6.512;2023-08-24T06:45:10;99940.88;;;19.41;78.46
65394;BME280;52002;49.760;6.512;2023-08-24T06:47:36;99936.69;;;19.42;78.40
65394;BME280;52002;49.760;6.512;2023-08-24T06:50:02;99918.63;;;19.44;78.44
65394;BME280;52002;49.760;6.512;2023-08-24T06:52:27;99907.84;;;19.52;78.43
65394;BME280;52002;49.760;6.512;2023-08-24T06:54:53;99905.63;;;19.64;77.83
65394;BME280;52002;49.760;6.512;2023-08-24T06:57:21;99897.04;;;19.76;77.15
65394;BME280;52002;49.760;6.512;2023-08-24T06:59:46;99894.86;;;19.87;76.78
65394;BME280;52002;49.760;6.512;2023-08-24T07:02:12;99910.39;;;19.96;76.29
65394;BME280;52002;49.760;6.512;2023-08-24T07:04:38;99915.94;;;19.96;76.50
65394;BME280;52002;49.760;6.512;2023-08-24T07:07:05;99912.62;;;19.93;76.74
65394;BME280;52002;49.760;6.512;2023-08-24T07:09:31;99912.71;;;19.89;76.95
65394;BME280;52002;49.760;6.512;2023-08-24T07:11:56;99913.14;;;19.85;77.11
65394;BME280;52002;49.760;6.512;2023-08-24T07:14:21;99906.59;;;19.86;77.19
65394;BME280;52002;49.760;6.512;2023-08-24T07:16:47;99896.64;;;19.88;77.29
65394;BME280;52002;49.760;6.512;2023-08-24T07:19:12;99891.02;;;19.92;77.41
65394;BME280;52002;49.760;6.512;2023-08-24T07:21:37;99886.71;;;19.99;77.46
65394;BME280;52002;49.760;6.512;2023-08-24T07:24:03;99880.63;;;20.10;77.65
65394;BME280;52002;49.760;6.512;2023-08-24T07:26:29;99878.65;;;20.25;77.58
65394;BME280;52002;49.760;6.512;2023-08-24T07:28:55;99881.72;;;20.49;77.26
65394;BME280;52002;49.760;6.512;2023-08-24T07:31:21;99886.52;;;20.89;76.55
65394;BME280;52002;49.760;6.512;2023-08-24T07:33:48;99901.05;;;21.45;75.63
65394;BME280;52002;49.760;6.512;2023-08-24T07:36:14;99901.08;;;21.69;74.33
65394;BME280;52002;49.760;6.512;2023-08-24T07:38:39;99893.52;;;21.56;73.56
65394;BME280;52002;49.760;6.512;2023-08-24T07:41:04;99883.80;;;21.32;75.37
65394;BME280;52002;49.760;6.512;2023-08-24T07:43:31;99883.48;;;21.16;76.39
65394;BME280;52002;49.760;6.512;2023-08-24T07:45:57;99876.52;;;21.14;76.09
65394;BME280;52002;49.760;6.512;2023-08-24T07:48:22;99884.20;;;21.59;74.74
65394;BME280;52002;49.760;6.512;2023-08-24T07:50:47;99882.55;;;21.68;74.72
65394;BME280;52002;49.760;6.512;2023-08-24T07:53:13;99884.98;;;21.84;73.99
65394;BME280;52002;49.760;6.512;2023-08-24T07:55:39;99886.10;;;22.38;72.63
65394;BME280;52002;49.760;6.512;2023-08-24T07:58:04;99883.89;;;22.29;71.84
65394;BME280;52002;49.760;6.512;2023-08-24T08:00:30;99883.29;;;21.93;72.24
65394;BME280;52002;49.760;6.512;2023-08-24T08:02:55;99880.61;;;21.83;72.66
65394;BME280;52002;49.760;6.512;2023-08-24T08:05:21;99880.77;;;23.15;70.46
65394;BME280;52002;49.760;6.512;2023-08-24T08:07:48;99886.05;;;24.73;67.60
65394;BME280;52002;49.760;6.512;2023-08-24T08:10:14;99883.32;;;26.90;64.04
65394;BME280;52002;49.760;6.512;2023-08-24T08:12:42;99882.94;;;28.30;61.48
65394;BME280;52002;49.760;6.512;2023-08-24T08:15:08;99886.67;;;29.75;58.00
65394;BME280;52002;49.760;6.512;2023-08-24T08:17:33;99893.74;;;30.63;55.81
65394;BME280;52002;49.760;6.512;2023-08-24T08:19:59;99899.06;;;31.05;54.67
65394;BME280;52002;49.760;6.512;2023-08-24T08:22:24;99897.19;;;31.24;53.42
65394;BME280;52002;49.760;6.512;2023-08-24T08:24:53;99888.95;;;30.84;52.70
65394;BME280;52002;49.760;6.512;2023-08-24T08:27:22;99881.09;;;29.90;53.06
65394;BME280;52002;49.760;6.512;2023-08-24T08:29:48;99873.55;;;29.15;54.06
65394;BME280;52002;49.760;6.512;2023-08-24T08:32:13;99875.48;;;28.72;54.41
65394;BME280;52002;49.760;6.512;2023-08-24T08:34:38;99875.53;;;28.38;54.94
65394;BME280;52002;49.760;6.512;2023-08-24T08:37:04;99876.22;;;28.20;55.24
65394;BME280;52002;49.760;6.512;2023-08-24T08:39:30;99871.17;;;27.94;55.28
65394;BME280;52002;49.760;6.512;2023-08-24T08:41:55;99871.45;;;27.72;55.71
65394;BME280;52002;49.760;6.512;2023-08-24T08:44:21;99863.02;;;27.50;56.07
65394;BME280;52002;49.760;6.512;2023-08-24T08:46:49;99871.80;;;27.33;56.79
65394;BME280;52002;49.760;6.512;2023-08-24T08:49:16;99872.63;;;27.25;57.09
65394;BME280;52002;49.760;6.512;2023-08-24T08:51:42;99870.26;;;27.18;56.95
65394;BME280;52002;49.760;6.512;2023-08-24T08:54:08;99867.14;;;26.99;57.02
65394;BME280;52002;49.760;6.512;2023-08-24T08:56:34;99862.52;;;26.83;57.25
65394;BME280;52002;49.760;6.512;2023-08-24T08:59:00;99864.81;;;26.76;57.61
65394;BME280;52002;49.760;6.512;2023-08-24T09:01:27;99862.34;;;26.67;57.43
65394;BME280;52002;49.760;6.512;2023-08-24T09:03:53;99854.46;;;26.58;58.04
65394;BME280;52002;49.760;6.512;2023-08-24T09:06:19;99847.85;;;26.52;57.94
65394;BME280;52002;49.760;6.512;2023-08-24T09:08:45;99839.49;;;26.38;57.68
65394;BME280;52002;49.760;6.512;2023-08-24T09:11:11;99826.95;;;26.25;57.82
65394;BME280;52002;49.760;6.512;2023-08-24T09:13:37;99822.09;;;26.16;58.01
65394;BME280;52002;49.760;6.512;2023-08-24T09:16:04;99820.50;;;26.11;58.51
65394;BME280;52002;49.760;6.512;2023-08-24T09:18:37;99820.30;;;26.12;58.55
65394;BME280;52002;49.760;6.512;2023-08-24T09:21:10;99817.62;;;26.10;58.78
65394;BME280;52002;49.760;6.512;2023-08-24T09:23:58;99823.08;;;26.19;59.07
65394;BME280;52002;49.760;6.512;2023-08-24T09:26:37;99830.20;;;26.36;59.63
65394;BME280;52002;49.760;6.512;2023-08-24T09:29:26;99828.39;;;26.50;59.53
65394;BME280;52002;49.760;6.512;2023-08-24T09:31:51;99834.65;;;26.58;59.42
65394;BME280;52002;49.760;6.512;2023-08-24T09:34:20;99835.20;;;26.61;59.52
65394;BME280;52002;49.760;6.512;2023-08-24T09:36:46;99834.55;;;26.68;59.58
65394;BME280;52002;49.760;6.512;2023-08-24T09:39:11;99828.30;;;26.71;59.27
65394;BME280;52002;49.760;6.512;2023-08-24T09:41:43;99823.36;;;26.74;59.39
65394;BME280;52002;49.760;6.512;2023-08-24T09:44:09;99818.49;;;26.83;59.43
65394;BME280;52002;49.760;6.512;2023-08-24T09:46:36;99809.69;;;26.90;59.20
65394;BME280;52002;49.760;6.512;2023-08-24T09:49:05;99807.85;;;26.99;59.15
65394;BME280;52002;49.760;6.512;2023-08-24T09:51:32;99804.77;;;27.05;58.98
65394;BME280;52002;49.760;6.512;2023-08-24T09:53:58;99799.04;;;27.10;58.80
65394;BME280;52002;49.760;6.512;2023-08-24T09:56:28;99791.37;;;27.19;58.92
65394;BME280;52002;49.760;6.512;2023-08-24T09:58:54;99788.40;;;27.34;59.16
65394;BME280;52002;49.760;6.512;2023-08-24T10:01:24;99794.00;;;27.44;58.70
65394;BME280;52002;49.760;6.512;2023-08-24T10:03:51;99796.67;;;27.46;58.37
65394;BME280;52002;49.760;6.512;2023-08-24T10:06:23;99799.31;;;27.45;58.25
65394;BME280;52002;49.760;6.512;2023-08-24T10:08:54;99799.92;;;27.34;58.29
65394;BME280;52002;49.760;6.512;2023-08-24T10:11:26;99802.27;;;27.19;58.72
65394;BME280;52002;49.760;6.512;2023-08-24T10:14:12;99807.51;;;26.98;59.04
65394;BME280;52002;49.760;6.512;2023-08-24T10:16:41;99809.61;;;26.73;59.65
65394;BME280;52002;49.760;6.512;2023-08-24T10:19:08;99813.53;;;26.52;60.17
65394;BME280;52002;49.760;6.512;2023-08-24T10:21:34;99809.53;;;26.36;60.53
65394;BME280;52002;49.760;6.512;2023-08-24T10:24:02;99794.14;;;26.18;60.89
65394;BME280;52002;49.760;6.512;2023-08-24T10:26:28;99800.86;;;25.98;61.38
65394;BME280;52002;49.760;6.512;2023-08-24T10:28:54;99808.84;;;25.78;61.40
65394;BME280;52002;49.760;6.512;2023-08-24T10:31:20;99802.52;;;25.60;61.87
65394;BME280;52002;49.760;6.512;2023-08-24T10:33:47;99796.45;;;25.40;62.30
65394;BME280;52002;49.760;6.512;2023-08-24T10:36:13;99793.99;;;25.18;62.81
65394;BME280;52002;49.760;6.512;2023-08-24T10:38:41;99797.77;;;24.97;63.75
65394;BME280;52002;49.760;6.512;2023-08-24T10:41:10;99798.80;;;24.76;64.43
65394;BME280;52002;49.760;6.512;2023-08-24T10:43:40;99800.90;;;24.60;65.32
65394;BME280;52002;49.760;6.512;2023-08-24T10:46:13;99799.02;;;24.47;65.68
65394;BME280;52002;49.760;6.512;2023-08-24T10:51:16;99803.83;;;24.37;66.98
65394;BME280;52002;49.760;6.512;2023-08-24T10:53:46;99805.70;;;24.36;67.46
65394;BME280;52002;49.760;6.512;2023-08-24T10:56:14;99799.94;;;24.31;67.78
65394;BME280;52002;49.760;6.512;2023-08-24T10:58:40;99796.03;;;24.21;68.40
65394;BME280;52002;49.760;6.512;2023-08-24T11:01:06;99791.48;;;24.06;68.94
65394;BME280;52002;49.760;6.512;2023-08-24T11:03:32;99785.04;;;23.94;69.55
65394;BME280;52002;49.760;6.512;2023-08-24T11:06:00;99780.48;;;23.83;70.18
65394;BME280;52002;49.760;6.512;2023-08-24T11:08:48;99776.61;;;23.71;70.76
65394;BME280;52002;49.760;6.512;2023-08-24T11:11:23;99770.48;;;23.63;71.28
65394;BME280;52002;49.760;6.512;2023-08-24T11:14:14;99769.19;;;23.60;71.62
65394;BME280;52002;49.760;6.512;2023-08-24T11:16:48;99778.98;;;23.55;71.96
65394;BME280;52002;49.760;6.512;2023-08-24T11:19:15;99772.18;;;23.52;72.13
65394;BME280;52002;49.760;6.512;2023-08-24T11:21:45;99762.93;;;23.48;72.24
65394;BME280;52002;49.760;6.512;2023-08-24T11:24:13;99761.30;;;23.41;72.18
65394;BME280;52002;49.760;6.512;2023-08-24T11:26:44;99763.08;;;23.36;72.80
65394;BME280;52002;49.760;6.512;2023-08-24T11:29:10;99760.45;;;23.34;73.22
65394;BME280;52002;49.760;6.512;2023-08-24T11:31:37;99756.27;;;23.33;73.49
65394;BME280;52002;49.760;6.512;2023-08-24T11:34:03;99763.29;;;23.28;73.62
65394;BME280;52002;49.760;6.512;2023-08-24T11:36:30;99779.83;;;23.19;73.88
65394;BME280;52002;49.760;6.512;2023-08-24T11:38:57;99790.62;;;23.11;74.24
65394;BME280;52002;49.760;6.512;2023-08-24T11:41:23;99811.36;;;23.06;74.37
65394;BME280;52002;49.760;6.512;2023-08-24T11:43:49;99834.13;;;22.98;74.48
65394;BME280;52002;49.760;6.512;2023-08-24T11:46:19;99879.56;;;22.88;74.83
65394;BME280;52002;49.760;6.512;2023-08-24T11:48:45;99946.35;;;22.83;75.28
65394;BME280;52002;49.760;6.512;2023-08-24T11:51:12;99971.85;;;22.80;75.16
65394;BME280;52002;49.760;6.512;2023-08-24T11:53:46;99951.65;;;22.74;74.37
65394;BME280;52002;49.760;6.512;2023-08-24T11:56:12;99924.55;;;22.72;74.05
65394;BME280;52002;49.760;6.512;2023-08-24T11:58:42;99940.98;;;22.68;73.97
65394;BME280;52002;49.760;6.512;2023-08-24T12:01:09;99957.98;;;22.70;73.93
65394;BME280;52002;49.760;6.512;2023-08-24T12:03:38;99962.52;;;22.73;73.89
65394;BME280;52002;49.760;6.512;2023-08-24T12:06:26;99973.67;;;22.77;73.89
65394;BME280;52002;49.760;6.512;2023-08-24T12:08:52;100004.95;;;22.86;73.39
65394;BME280;52002;49.760;6.512;2023-08-24T12:11:20;100035.98;;;22.91;73.24
65394;BME280;52002;49.760;6.512;2023-08-24T12:13:50;100059.03;;;22.96;73.62
65394;BME280;52002;49.760;6.512;2023-08-24T12:16:17;100071.54;;;22.99;73.44
65394;BME280;52002;49.760;6.512;2023-08-24T12:18:53;100070.29;;;22.99;73.23
65394;BME280;52002;49.760;6.512;2023-08-24T12:21:20;100062.95;;;22.94;73.19
65394;BME280;52002;49.760;6.512;2023-08-24T12:23:59;100024.33;;;22.86;72.45
65394;BME280;52002;49.760;6.512;2023-08-24T12:26:26;99937.21;;;22.70;72.53
65394;BME280;52002;49.760;6.512;2023-08-24T12:28:52;99886.36;;;22.45;72.72
65394;BME280;52002;49.760;6.512;2023-08-24T12:31:19;99857.56;;;22.30;72.65
65394;BME280;52002;49.760;6.512;2023-08-24T12:33:44;99846.96;;;22.17;73.03
65394;BME280;52002;49.760;6.512;2023-08-24T12:36:10;99829.95;;;22.14;73.40
65394;BME280;52002;49.760;6.512;2023-08-24T12:38:35;99804.73;;;22.16;73.24
65394;BME280;52002;49.760;6.512;2023-08-24T12:41:01;99786.20;;;22.23;73.43
65394;BME280;52002;49.760;6.512;2023-08-24T12:43:27;99789.36;;;22.31;73.27
65394;BME280;52002;49.760;6.512;2023-08-24T12:45:52;99781.61;;;22.47;73.20
65394;BME280;52002;49.760;6.512;2023-08-24T12:48:18;99764.86;;;22.62;72.96
65394;BME280;52002;49.760;6.512;2023-08-24T12:50:43;99739.96;;;22.75;72.71
65394;BME280;52002;49.760;6.512;2023-08-24T12:53:09;99730.29;;;22.88;72.47
65394;BME280;52002;49.760;6.512;2023-08-24T12:55:35;99734.30;;;23.02;71.91
65394;BME280;52002;49.760;6.512;2023-08-24T12:58:01;99732.50;;;23.12;71.50
65394;BME280;52002;49.760;6.512;2023-08-24T13:00:26;99735.08;;;23.21;71.65
65394;BME280;52002;49.760;6.512;2023-08-24T13:02:55;99731.40;;;23.27;71.16